Time;durP1;ratioP1;P1;durP2;ratioP2;P2;SDS_P1;SDS_P2;PMS_P1;PMS_P2;Temp;Humidity;BMP_temperature;BMP_pressure;BME280_temperature;BME280_humidity;BME280_pressure;Samples;Min_cycle;Max_cycle;Signal;HPM_P1;HPM_P2
2023/07/14 00:01:30;;;;;;;8.38;3.50;;;19.90;99.90;;;;;;4171745;28;20025;-59
2023/07/14 00:03:30;;;;;;;8.15;3.55;;;20.00;99.90;;;;;;4176722;28;20040;-61
2023/07/14 00:05:34;;;;;;;8.80;3.53;;;19.90;99.90;;;;;;4175548;28;20568;-59
2023/07/14 00:07:34;;;;;;;8.27;3.50;;;19.90;99.90;;;;;;4176696;28;20077;-59
2023/07/14 00:09:35;;;;;;;9.32;3.53;;;19.90;99.90;;;;;;4175680;28;20033;-58
2023/07/14 00:11:35;;;;;;;4.93;2.72;;;19.90;99.90;;;;;;4153599;28;20174;-58
2023/07/14 00:13:36;;;;;;;7.20;2.75;;;19.90;99.90;;;;;;4174005;28;20393;-59
2023/07/14 00:15:39;;;;;;;6.75;3.03;;;19.80;99.90;;;;;;4174340;28;20091;-58
2023/07/14 00:17:40;;;;;;;6.30;2.80;;;19.80;99.90;;;;;;4176708;28;20113;-58
2023/07/14 00:19:40;;;;;;;4.13;2.35;;;19.80;99.90;;;;;;4175275;28;20512;-59
2023/07/14 00:21:42;;;;;;;4.80;2.65;;;19.80;99.90;;;;;;4171148;28;20067;-59
2023/07/14 00:23:43;;;;;;;6.40;2.70;;;19.80;99.90;;;;;;4177270;28;20381;-59
2023/07/14 00:25:45;;;;;;;2.92;2.30;;;19.80;99.90;;;;;;4174879;28;20067;-58
2023/07/14 00:27:45;;;;;;;3.03;2.30;;;19.80;99.90;;;;;;4174959;28;20039;-59
2023/07/14 00:29:47;;;;;;;3.92;2.10;;;19.80;99.90;;;;;;4174027;28;20025;-59
2023/07/14 00:31:48;;;;;;;2.78;2.20;;;19.80;99.90;;;;;;4168803;28;20083;-58
2023/07/14 00:33:50;;;;;;;3.78;2.47;;;19.80;99.90;;;;;;4175596;28;20029;-59
2023/07/14 00:35:51;;;;;;;3.38;2.25;;;19.80;99.90;;;;;;4170213;28;20044;-59
2023/07/14 00:37:56;;;;;;;2.90;2.25;;;19.80;99.90;;;;;;4158355;28;20037;-59
2023/07/14 00:39:57;;;;;;;3.03;2.38;;;19.80;99.90;;;;;;4174961;28;20573;-59
2023/07/14 00:41:57;;;;;;;5.20;2.65;;;19.80;99.90;;;;;;4171796;28;20318;-62
2023/07/14 00:43:58;;;;;;;4.63;2.55;;;19.80;99.90;;;;;;4176085;28;20035;-59
2023/07/14 00:45:59;;;;;;;4.35;2.58;;;19.90;99.90;;;;;;4171696;28;20111;-58
2023/07/14 00:48:03;;;;;;;4.85;2.08;;;19.90;99.90;;;;;;4175514;28;20041;-59
2023/07/14 00:50:05;;;;;;;4.07;2.75;;;19.90;99.90;;;;;;4170747;28;20029;-63
2023/07/14 00:52:16;;;;;;;5.80;2.20;;;19.90;99.90;;;;;;4172899;28;20029;-59
2023/07/14 00:54:28;;;;;;;3.65;2.13;;;19.90;99.90;;;;;;4171376;28;20033;-59
2023/07/14 00:56:34;;;;;;;4.47;2.13;;;19.90;99.90;;;;;;4169760;28;20087;-59
2023/07/14 00:58:34;;;;;;;4.22;2.78;;;19.80;99.90;;;;;;4172140;28;20064;-59
2023/07/14 01:00:35;;;;;;;6.03;2.63;;;19.80;99.90;;;;;;4163036;28;20037;-58
2023/07/14 01:02:36;;;;;;;5.28;2.67;;;19.80;99.90;;;;;;4171542;28;20029;-58
2023/07/14 01:04:43;;;;;;;3.92;2.22;;;19.80;99.90;;;;;;4168489;28;20033;-58
2023/07/14 01:06:43;;;;;;;3.15;1.90;;;19.80;99.90;;;;;;4171059;28;20032;-59
2023/07/14 01:09:01;;;;;;;3.83;2.25;;;19.70;99.90;;;;;;4153140;28;20119;-58
2023/07/14 01:11:03;;;;;;;5.13;2.63;;;19.70;99.90;;;;;;4169090;28;20033;-59
2023/07/14 01:13:07;;;;;;;3.58;2.15;;;19.70;99.90;;;;;;4173781;28;20385;-59
2023/07/14 01:15:09;;;;;;;6.07;2.15;;;19.60;99.90;;;;;;4171796;28;20160;-59
2023/07/14 01:17:09;;;;;;;4.25;2.10;;;19.60;99.90;;;;;;4174776;28;20037;-59
2023/07/14 01:19:46;;;;;;;2.65;1.85;;;19.60;99.90;;;;;;4174964;28;20468;-58
2023/07/14 01:21:54;;;;;;;5.22;2.47;;;19.60;99.90;;;;;;4156768;28;20042;-59
2023/07/14 01:24:07;;;;;;;3.88;2.40;;;19.60;99.90;;;;;;4159417;28;20038;-58
2023/07/14 01:26:27;;;;;;;4.43;2.40;;;19.60;99.90;;;;;;4155846;28;20093;-58
2023/07/14 01:28:28;;;;;;;3.88;2.53;;;19.60;99.90;;;;;;4160927;28;20543;-60
2023/07/14 01:30:30;;;;;;;5.00;2.35;;;19.60;99.90;;;;;;4157305;28;20124;-59
2023/07/14 01:32:35;;;;;;;4.60;1.90;;;19.50;99.90;;;;;;4160355;28;20033;-58
2023/07/14 01:34:37;;;;;;;5.55;2.35;;;19.50;99.90;;;;;;4162234;28;20513;-58
2023/07/14 01:36:38;;;;;;;3.35;2.20;;;19.50;99.90;;;;;;4160802;28;20030;-59
2023/07/14 01:38:39;;;;;;;6.45;2.28;;;19.50;99.90;;;;;;4160851;28;20033;-59
2023/07/14 01:40:40;;;;;;;6.30;2.50;;;19.50;99.90;;;;;;4156475;28;20064;-58
2023/07/14 01:42:43;;;;;;;3.78;2.17;;;19.40;99.90;;;;;;4171488;28;20511;-59
2023/07/14 01:44:45;;;;;;;;;;;19.40;99.90;;;;;;4178620;28;20029;-58
2023/07/14 01:46:47;;;;;;;7.25;2.35;;;19.40;99.90;;;;;;4163806;28;19955;-59
2023/07/14 01:48:57;;;;;;;7.88;2.30;;;19.30;99.90;;;;;;4174927;28;20029;-58
2023/07/14 01:51:02;;;;;;;4.90;2.30;;;19.30;99.90;;;;;;4172406;28;20072;-58
2023/07/14 01:53:11;;;;;;;4.72;2.42;;;19.20;99.90;;;;;;4159746;28;20128;-58
2023/07/14 01:55:14;;;;;;;3.90;2.30;;;19.20;99.90;;;;;;4160976;28;20037;-59
2023/07/14 01:57:20;;;;;;;3.88;2.55;;;19.20;99.90;;;;;;4176539;28;20390;-58
2023/07/14 01:59:26;;;;;;;2.60;2.15;;;19.10;99.90;;;;;;4173051;28;20362;-59
2023/07/14 02:01:28;;;;;;;3.30;2.10;;;19.10;99.90;;;;;;4165923;28;20038;-58
2023/07/14 02:03:39;;;;;;;3.30;2.17;;;19.10;99.90;;;;;;4159249;28;20099;-58
2023/07/14 02:05:40;;;;;;;3.20;2.05;;;19.10;99.90;;;;;;4161312;28;20467;-59
2023/07/14 02:07:40;;;;;;;2.95;2.13;;;19.10;99.90;;;;;;4158400;28;20057;-58
2023/07/14 02:09:42;;;;;;;4.40;2.10;;;19.10;99.90;;;;;;4152649;28;20026;-59
2023/07/14 02:11:44;;;;;;;3.55;2.08;;;19.00;99.90;;;;;;4152333;28;20045;-58
2023/07/14 02:13:46;;;;;;;3.70;2.00;;;19.00;99.90;;;;;;4155238;28;20032;-58
2023/07/14 02:15:47;;;;;;;5.40;1.85;;;18.90;99.90;;;;;;4162198;28;20112;-59
2023/07/14 02:17:49;;;;;;;2.53;1.88;;;18.90;99.90;;;;;;4178374;28;20043;-58
2023/07/14 02:19:51;;;;;;;2.80;1.80;;;18.90;99.90;;;;;;4172434;28;20095;-59
2023/07/14 02:21:54;;;;;;;4.03;2.55;;;18.90;99.90;;;;;;4174196;28;20051;-58
2023/07/14 02:23:56;;;;;;;3.65;2.05;;;18.80;99.90;;;;;;4173778;28;20402;-58
2023/07/14 02:26:18;;;;;;;6.40;2.38;;;18.80;99.90;;;;;;4173192;28;20037;-59
2023/07/14 02:28:19;;;;;;;2.72;1.80;;;18.80;99.90;;;;;;4171321;28;20047;-59
2023/07/14 02:30:22;;;;;;;6.13;2.28;;;18.80;99.90;;;;;;4171663;28;20060;-58
2023/07/14 02:32:35;;;;;;;3.75;2.40;;;18.80;99.90;;;;;;4177622;28;20067;-59
2023/07/14 02:34:43;;;;;;;4.82;2.13;;;18.80;99.90;;;;;;4175306;28;20037;-59
2023/07/14 02:37:02;;;;;;;2.75;2.40;;;18.80;99.90;;;;;;4174553;28;20037;-59
2023/07/14 02:39:04;;;;;;;3.80;2.30;;;18.70;99.90;;;;;;4172631;28;20048;-59
2023/07/14 02:41:05;;;;;;;3.47;2.17;;;18.70;99.90;;;;;;4176602;28;20087;-59
2023/07/14 02:43:13;;;;;;;3.77;1.97;;;18.70;99.90;;;;;;4178523;28;20048;-58
2023/07/14 02:45:17;;;;;;;3.75;2.17;;;18.70;99.90;;;;;;4173205;28;20412;-58
2023/07/14 02:47:21;;;;;;;4.53;2.92;;;18.70;99.90;;;;;;4173005;28;20029;-58
2023/07/14 02:49:22;;;;;;;5.47;2.35;;;18.60;99.90;;;;;;4174811;28;20033;-58
2023/07/14 02:51:22;;;;;;;2.65;1.80;;;18.60;99.90;;;;;;4173221;28;20044;-59
2023/07/14 02:53:23;;;;;;;4.43;2.17;;;18.60;99.90;;;;;;4177450;28;20075;-58
2023/07/14 02:55:24;;;;;;;2.53;2.00;;;18.60;99.90;;;;;;4174182;28;20049;-58
2023/07/14 02:57:24;;;;;;;3.33;1.90;;;18.50;99.90;;;;;;4175579;28;20029;-59
2023/07/14 02:59:25;;;;;;;5.47;2.22;;;18.50;99.90;;;;;;4177087;28;20044;-58
2023/07/14 03:01:27;;;;;;;3.08;2.13;;;18.50;99.90;;;;;;4162304;28;20029;-58
2023/07/14 03:03:28;;;;;;;3.40;2.05;;;18.50;99.90;;;;;;4175280;28;20037;-58
2023/07/14 03:05:29;;;;;;;3.63;2.40;;;18.40;99.90;;;;;;4174389;28;20037;-59
2023/07/14 03:07:32;;;;;;;5.95;2.13;;;18.40;99.90;;;;;;4172381;28;20025;-58
2023/07/14 03:09:33;;;;;;;2.28;1.80;;;18.30;99.90;;;;;;4174707;28;20415;-59
2023/07/14 03:11:33;;;;;;;2.63;1.95;;;18.40;99.90;;;;;;4175106;28;20025;-59
2023/07/14 03:13:35;;;;;;;3.50;2.28;;;18.30;99.90;;;;;;4178029;28;20033;-59
2023/07/14 03:15:35;;;;;;;5.13;2.20;;;18.30;99.90;;;;;;4169902;28;20079;-58
2023/07/14 03:17:36;;;;;;;3.05;2.15;;;18.30;99.90;;;;;;4177609;28;20762;-59
2023/07/14 03:19:36;;;;;;;4.30;1.88;;;18.30;99.90;;;;;;4176247;28;20063;-58
2023/07/14 03:21:38;;;;;;;3.28;2.30;;;18.30;99.90;;;;;;4175730;28;20396;-59
2023/07/14 03:23:38;;;;;;;4.13;2.03;;;18.30;99.90;;;;;;4173407;28;20018;-59
2023/07/14 03:25:40;;;;;;;4.68;2.40;;;18.30;99.90;;;;;;4174272;28;20581;-58
2023/07/14 03:27:41;;;;;;;2.95;2.10;;;18.40;99.90;;;;;;4174450;28;20037;-59
2023/07/14 03:29:41;;;;;;;5.20;2.35;;;18.40;99.90;;;;;;4175472;28;20385;-59
2023/07/14 03:31:42;;;;;;;4.50;2.60;;;18.40;99.90;;;;;;4174187;28;20040;-59
2023/07/14 03:33:43;;;;;;;2.65;2.33;;;18.40;99.90;;;;;;4178035;28;20747;-59
2023/07/14 03:35:43;;;;;;;4.70;2.72;;;18.40;99.90;;;;;;4174818;28;20041;-58
2023/07/14 03:37:44;;;;;;;5.00;2.60;;;18.40;99.90;;;;;;4176703;28;20029;-58
2023/07/14 03:39:45;;;;;;;5.80;3.08;;;18.40;99.90;;;;;;4174080;28;20551;-58
2023/07/14 03:41:46;;;;;;;4.78;2.50;;;18.40;99.90;;;;;;4172298;28;20882;-58
2023/07/14 03:43:46;;;;;;;5.45;3.17;;;18.40;99.90;;;;;;4177941;28;20048;-58
2023/07/14 03:45:47;;;;;;;4.13;2.97;;;18.40;99.90;;;;;;4172987;28;20086;-58
2023/07/14 03:47:49;;;;;;;5.68;2.72;;;18.50;99.90;;;;;;4165296;28;20041;-58
2023/07/14 03:49:49;;;;;;;5.03;2.67;;;18.40;99.90;;;;;;4168604;28;20033;-58
2023/07/14 03:51:52;;;;;;;5.05;2.88;;;18.50;99.90;;;;;;4170412;28;20104;-59
2023/07/14 03:53:52;;;;;;;4.43;2.80;;;18.50;99.90;;;;;;4175587;28;20025;-59
2023/07/14 03:55:53;;;;;;;4.15;2.67;;;18.50;99.90;;;;;;4167287;28;20040;-58
2023/07/14 03:57:55;;;;;;;4.22;2.70;;;18.50;99.90;;;;;;4164984;28;20421;-58
2023/07/14 03:59:55;;;;;;;5.60;3.25;;;18.50;99.90;;;;;;4168334;28;20079;-59
2023/07/14 04:01:56;;;;;;;4.72;2.67;;;18.50;99.90;;;;;;4162066;28;20037;-58
2023/07/14 04:03:56;;;;;;;4.35;2.85;;;18.50;99.90;;;;;;4166846;28;20063;-59
2023/07/14 04:05:57;;;;;;;8.65;2.90;;;18.50;99.90;;;;;;4163591;28;20045;-58
2023/07/14 04:07:58;;;;;;;4.25;2.90;;;18.50;99.90;;;;;;4160915;28;20038;-59
2023/07/14 04:09:58;;;;;;;4.95;3.00;;;18.50;99.90;;;;;;4159402;28;20477;-59
2023/07/14 04:11:59;;;;;;;5.75;2.63;;;18.50;99.90;;;;;;4155722;28;20038;-59
2023/07/14 04:14:00;;;;;;;4.35;2.85;;;18.50;99.90;;;;;;4160985;28;20041;-58
2023/07/14 04:16:00;;;;;;;4.68;2.75;;;18.50;99.90;;;;;;4153749;28;20034;-59
2023/07/14 04:18:01;;;;;;;5.60;3.50;;;18.50;99.90;;;;;;4159661;28;20037;-60
2023/07/14 04:20:02;;;;;;;4.13;2.70;;;18.50;99.90;;;;;;4155162;28;20037;-59
2023/07/14 04:22:03;;;;;;;4.38;3.22;;;18.50;99.90;;;;;;4157271;28;20393;-58
2023/07/14 04:24:03;;;;;;;4.78;3.17;;;18.50;99.90;;;;;;4159478;28;20040;-58
2023/07/14 04:26:07;;;;;;;4.93;2.80;;;18.50;99.90;;;;;;4157196;28;20034;-59
2023/07/14 04:28:08;;;;;;;5.95;3.03;;;18.50;99.90;;;;;;4159449;28;20559;-59
2023/07/14 04:30:09;;;;;;;6.75;2.97;;;18.50;99.90;;;;;;4157289;28;20075;-59
2023/07/14 04:32:09;;;;;;;5.10;3.15;;;18.50;99.90;;;;;;4157489;28;20524;-58
2023/07/14 04:34:10;;;;;;;5.22;3.00;;;18.50;99.90;;;;;;4160923;28;20041;-59
2023/07/14 04:36:12;;;;;;;4.45;3.20;;;18.50;99.90;;;;;;4159363;28;20522;-58
2023/07/14 04:38:13;;;;;;;4.75;3.25;;;18.50;99.90;;;;;;4159884;28;20044;-59
2023/07/14 04:40:13;;;;;;;5.32;2.75;;;18.50;99.90;;;;;;4157990;28;20038;-58
2023/07/14 04:42:14;;;;;;;4.35;2.85;;;18.50;99.90;;;;;;4163286;28;20045;-58
2023/07/14 04:44:15;;;;;;;4.72;3.17;;;18.50;99.90;;;;;;4174247;28;20045;-58
2023/07/14 04:46:16;;;;;;;4.38;2.78;;;18.50;99.90;;;;;;4173856;28;20442;-58
2023/07/14 04:48:19;;;;;;;7.68;2.88;;;18.50;99.90;;;;;;4174831;28;20045;-58
2023/07/14 04:50:20;;;;;;;4.80;3.45;;;18.50;99.90;;;;;;4175218;28;20037;-58
2023/07/14 04:52:20;;;;;;;9.43;2.97;;;18.50;99.90;;;;;;4174414;28;20039;-59
2023/07/14 04:54:23;;;;;;;6.90;3.72;;;18.50;99.90;;;;;;4173381;28;20048;-59
2023/07/14 04:56:24;;;;;;;5.00;3.20;;;18.50;99.90;;;;;;4170661;28;20029;-58
2023/07/14 04:58:25;;;;;;;3.00;2.50;;;18.50;99.90;;;;;;4172655;28;20037;-58
2023/07/14 05:00:26;;;;;;;4.97;3.15;;;18.50;99.90;;;;;;4171836;28;20067;-58
2023/07/14 05:02:26;;;;;;;4.13;2.75;;;18.50;99.90;;;;;;4169801;28;20088;-58
2023/07/14 05:04:29;;;;;;;7.38;3.53;;;18.50;99.90;;;;;;4176562;28;20040;-58
2023/07/14 05:06:31;;;;;;;6.75;3.50;;;18.60;99.90;;;;;;4171121;28;20061;-58
2023/07/14 05:08:32;;;;;;;6.22;3.25;;;18.60;99.90;;;;;;4157172;28;20029;-64
2023/07/14 05:10:33;;;;;;;5.00;3.15;;;18.50;99.90;;;;;;4154420;28;20064;-59
2023/07/14 05:12:34;;;;;;;4.97;3.37;;;18.50;99.90;;;;;;4161109;28;20374;-59
2023/07/14 05:14:35;;;;;;;6.63;3.38;;;18.50;99.90;;;;;;4174802;28;20096;-58
2023/07/14 05:16:35;;;;;;;5.55;3.30;;;18.50;99.90;;;;;;4168533;28;20116;-59
2023/07/14 05:18:36;;;;;;;7.00;3.45;;;18.50;99.90;;;;;;4162676;28;20398;-59
2023/07/14 05:20:36;;;;;;;6.57;3.25;;;18.40;99.90;;;;;;4164214;28;20037;-58
2023/07/14 05:22:37;;;;;;;4.22;2.97;;;18.50;99.90;;;;;;4168132;28;20049;-58
2023/07/14 05:24:38;;;;;;;5.75;3.22;;;18.50;99.90;;;;;;4168846;28;20037;-58
2023/07/14 05:26:38;;;;;;;6.35;3.22;;;18.50;99.90;;;;;;4164401;28;20045;-58
2023/07/14 05:28:39;;;;;;;6.68;3.30;;;18.50;99.90;;;;;;4164758;28;20128;-59
2023/07/14 05:30:40;;;;;;;4.50;2.92;;;18.60;99.90;;;;;;4157076;28;20048;-58
2023/07/14 05:32:43;;;;;;;4.78;2.83;;;18.60;99.90;;;;;;4155432;28;20048;-58
2023/07/14 05:34:43;;;;;;;5.38;2.53;;;18.60;99.90;;;;;;4166187;28;20083;-59
2023/07/14 05:36:44;;;;;;;6.20;2.83;;;18.60;99.90;;;;;;4160702;28;20026;-58
2023/07/14 05:38:45;;;;;;;4.53;2.47;;;18.70;99.90;;;;;;4172875;28;20033;-58
2023/07/14 05:40:54;;;;;;;7.32;3.05;;;18.70;99.90;;;;;;4171728;28;20057;-58
2023/07/14 05:42:54;;;;;;;4.40;2.47;;;18.70;99.90;;;;;;4175891;28;20074;-58
2023/07/14 05:44:55;;;;;;;2.92;2.33;;;18.70;99.90;;;;;;4173585;28;20045;-58
2023/07/14 05:46:55;;;;;;;6.60;2.45;;;18.70;99.90;;;;;;4172317;28;20044;-58
2023/07/14 05:48:56;;;;;;;4.75;2.67;;;18.70;99.90;;;;;;4171970;28;20050;-58
2023/07/14 05:50:56;;;;;;;6.43;2.45;;;18.80;99.90;;;;;;4172797;28;20041;-58
2023/07/14 05:52:57;;;;;;;3.00;2.25;;;18.80;99.90;;;;;;4158649;28;20469;-59
2023/07/14 05:54:57;;;;;;;5.60;2.60;;;18.80;99.90;;;;;;4144832;28;20515;-59
2023/07/14 05:56:58;;;;;;;5.28;2.70;;;18.90;99.90;;;;;;4156040;28;20056;-59
2023/07/14 05:58:59;;;;;;;5.78;2.78;;;18.90;99.90;;;;;;4158728;28;20485;-59
2023/07/14 06:00:59;;;;;;;4.18;2.30;;;19.00;99.90;;;;;;4153792;28;20542;-59
2023/07/14 06:03:00;;;;;;;3.97;2.45;;;19.20;99.90;;;;;;4174102;28;20056;-59
2023/07/14 06:05:00;;;;;;;5.68;2.72;;;19.40;99.90;;;;;;4175602;28;20036;-58
2023/07/14 06:07:03;;;;;;;3.80;2.13;;;19.80;99.90;;;;;;4177553;28;20035;-59
2023/07/14 06:09:05;;;;;;;3.47;1.98;;;20.10;99.90;;;;;;4168559;28;20488;-59
2023/07/14 06:11:05;;;;;;;2.92;1.83;;;20.60;99.90;;;;;;4175393;28;20029;-59
2023/07/14 06:13:06;;;;;;;3.80;2.00;;;21.00;99.90;;;;;;4178017;28;20499;-59
2023/07/14 06:15:07;;;;;;;4.43;2.03;;;21.40;99.90;;;;;;4174623;28;20378;-59
2023/07/14 06:17:08;;;;;;;2.65;1.75;;;21.70;99.90;;;;;;4176718;28;20503;-59
2023/07/14 06:19:09;;;;;;;3.33;1.67;;;22.00;99.90;;;;;;4172132;28;20037;-59
2023/07/14 06:21:11;;;;;;;2.45;1.67;;;22.40;99.90;;;;;;4175786;28;20037;-59
2023/07/14 06:23:11;;;;;;;4.47;2.28;;;22.80;99.90;;;;;;4173039;28;20048;-60
2023/07/14 06:25:12;;;;;;;2.97;1.83;;;23.10;99.90;;;;;;4179861;28;20041;-59
2023/07/14 06:27:13;;;;;;;4.15;2.03;;;23.40;99.90;;;;;;4179362;28;20388;-59
2023/07/14 06:29:14;;;;;;;6.50;2.40;;;23.60;99.90;;;;;;4176317;28;20040;-59
2023/07/14 06:31:14;;;;;;;3.20;2.13;;;23.90;99.90;;;;;;4155372;28;20041;-59
2023/07/14 06:33:15;;;;;;;3.58;1.77;;;24.10;99.90;;;;;;4170662;28;20175;-60
2023/07/14 06:35:16;;;;;;;2.72;1.50;;;24.30;99.90;;;;;;4177177;28;20032;-59
2023/07/14 06:37:16;;;;;;;3.97;1.73;;;24.50;99.90;;;;;;4179851;28;20048;-60
2023/07/14 06:39:18;;;;;;;6.13;1.70;;;24.60;99.90;;;;;;4180956;28;20033;-60
2023/07/14 06:41:19;;;;;;;3.65;1.80;;;24.80;99.90;;;;;;4173353;28;20047;-59
2023/07/14 06:43:19;;;;;;;2.17;1.63;;;24.90;99.90;;;;;;4181126;28;20070;-60
2023/07/14 06:45:20;;;;;;;5.55;1.83;;;25.00;99.90;;;;;;4181290;28;20044;-60
2023/07/14 06:47:21;;;;;;;2.72;1.65;;;25.10;99.90;;;;;;4183660;28;20043;-59
2023/07/14 06:49:21;;;;;;;3.08;1.80;;;25.20;99.90;;;;;;4180978;28;20033;-60
2023/07/14 06:51:22;;;;;;;3.13;1.60;;;25.30;99.90;;;;;;4177723;28;20032;-60
2023/07/14 06:53:23;;;;;;;2.70;1.80;;;25.40;99.90;;;;;;4180528;28;20041;-60
2023/07/14 06:55:24;;;;;;;4.57;2.00;;;25.30;99.50;;;;;;4176818;28;20495;-60
2023/07/14 06:57:24;;;;;;;2.60;1.70;;;25.30;99.80;;;;;;4179969;28;20118;-60
2023/07/14 06:59:25;;;;;;;2.72;1.80;;;25.20;99.80;;;;;;4174893;28;20039;-60
2023/07/14 07:01:25;;;;;;;5.43;1.67;;;25.10;99.90;;;;;;4154725;28;20573;-60
2023/07/14 07:03:26;;;;;;;3.72;1.77;;;25.10;99.40;;;;;;4173554;28;20044;-60
2023/07/14 07:05:27;;;;;;;2.60;1.40;;;25.10;99.80;;;;;;4179905;28;20487;-60
2023/07/14 07:07:27;;;;;;;3.00;1.50;;;25.10;99.30;;;;;;4182286;28;20028;-60
2023/07/14 07:09:28;;;;;;;4.88;1.98;;;25.10;99.90;;;;;;4167163;28;20108;-60
2023/07/14 07:11:30;;;;;;;6.85;2.72;;;25.10;99.10;;;;;;4166793;28;20489;-60
2023/07/14 07:13:30;;;;;;;3.30;1.88;;;24.90;99.50;;;;;;4164595;28;20033;-60
2023/07/14 07:15:31;;;;;;;4.90;1.90;;;24.90;99.20;;;;;;4164099;28;20137;-60
2023/07/14 07:17:31;;;;;;;4.03;1.80;;;24.90;98.70;;;;;;4161243;28;20037;-60
2023/07/14 07:19:32;;;;;;;4.43;2.03;;;24.80;99.50;;;;;;4161711;28;20065;-60
2023/07/14 07:21:33;;;;;;;5.95;2.10;;;24.90;99.90;;;;;;4157439;28;20060;-62
2023/07/14 07:23:34;;;;;;;2.83;1.77;;;24.80;99.40;;;;;;4162975;28;20320;-61
2023/07/14 07:25:34;;;;;;;3.00;1.75;;;24.70;98.70;;;;;;4161545;28;20029;-61
2023/07/14 07:27:35;;;;;;;2.63;1.42;;;24.70;99.80;;;;;;4162515;28;20029;-60
2023/07/14 07:29:39;;;;;;;5.13;1.95;;;24.70;99.20;;;;;;4159147;28;20492;-60
2023/07/14 07:31:39;;;;;;;4.05;1.75;;;24.70;99.40;;;;;;4161003;28;20025;-60
2023/07/14 07:33:41;;;;;;;2.95;1.73;;;24.50;99.20;;;;;;4162501;28;20132;-60
2023/07/14 07:35:42;;;;;;;3.57;1.90;;;24.40;99.30;;;;;;4161618;28;20029;-60
2023/07/14 07:37:43;;;;;;;3.88;2.10;;;24.40;98.60;;;;;;4163154;28;20040;-61
2023/07/14 07:39:44;;;;;;;4.00;1.85;;;24.40;99.90;;;;;;4159567;28;20489;-60
2023/07/14 07:41:45;;;;;;;4.35;1.80;;;24.30;99.90;;;;;;4165809;28;20112;-60
2023/07/14 07:43:46;;;;;;;4.80;1.60;;;24.20;98.90;;;;;;4183461;28;20044;-60
2023/07/14 07:45:49;;;;;;;2.95;1.67;;;24.20;98.70;;;;;;4180730;28;20469;-60
2023/07/14 07:47:50;;;;;;;2.60;1.60;;;24.10;98.50;;;;;;4163298;28;20030;-60
2023/07/14 07:49:50;;;;;;;4.57;1.80;;;24.20;99.90;;;;;;4179970;28;20118;-60
2023/07/14 07:51:51;;;;;;;3.75;2.15;;;24.20;98.50;;;;;;4180029;28;20040;-60
2023/07/14 07:53:52;;;;;;;9.15;1.70;;;24.20;98.70;;;;;;4177436;28;20024;-60
2023/07/14 07:55:57;;;;;;;3.83;1.85;;;24.10;98.50;;;;;;4176024;28;20033;-60
2023/07/14 07:57:58;;;;;;;4.43;2.00;;;24.10;97.50;;;;;;4165306;28;20068;-60
2023/07/14 07:59:59;;;;;;;3.25;1.63;;;24.20;98.30;;;;;;4163707;28;20021;-60
2023/07/14 08:02:00;;;;;;;3.75;1.95;;;24.20;98.40;;;;;;4169891;28;20500;-60
2023/07/14 08:04:01;;;;;;;3.08;1.90;;;24.20;97.80;;;;;;4183420;28;20044;-62
2023/07/14 08:06:04;;;;;;;2.42;1.65;;;24.20;99.50;;;;;;4156817;28;20053;-62
2023/07/14 08:08:05;;;;;;;2.67;1.90;;;24.20;98.20;;;;;;4179972;28;20116;-62
2023/07/14 08:10:07;;;;;;;2.95;1.52;;;24.20;97.60;;;;;;4178609;28;20520;-62
2023/07/14 08:12:08;;;;;;;4.60;1.83;;;24.30;98.00;;;;;;4178837;28;20051;-62
2023/07/14 08:14:15;;;;;;;2.28;1.55;;;24.30;97.70;;;;;;4178324;28;20081;-62
2023/07/14 08:16:17;;;;;;;3.17;1.65;;;24.40;98.70;;;;;;4173657;28;20495;-62
2023/07/14 08:18:18;;;;;;;3.35;1.77;;;24.50;99.40;;;;;;4159389;28;20690;-62
2023/07/14 08:20:18;;;;;;;3.88;2.30;;;24.60;99.10;;;;;;4173990;28;20072;-62
2023/07/14 08:22:21;;;;;;;3.45;1.88;;;24.60;98.40;;;;;;4177735;28;20029;-65
2023/07/14 08:24:21;;;;;;;;;;;24.70;98.10;;;;;;4178635;28;20037;-62
2023/07/14 08:26:22;;;;;;;2.60;1.33;;;24.70;97.70;;;;;;4177062;28;19917;-62
2023/07/14 08:28:23;;;;;;;3.95;2.05;;;24.80;97.70;;;;;;4175922;28;20049;-62
2023/07/14 08:30:23;;;;;;;3.58;1.70;;;24.90;99.60;;;;;;4172749;28;20130;-62
2023/07/14 08:32:24;;;;;;;3.50;1.60;;;24.80;97.90;;;;;;4179448;28;20047;-62
2023/07/14 08:34:27;;;;;;;2.70;1.45;;;24.90;96.80;;;;;;4174619;28;20037;-62
2023/07/14 08:36:28;;;;;;;3.42;1.63;;;24.90;96.90;;;;;;4157031;28;20129;-62
2023/07/14 08:38:33;;;;;;;7.22;1.95;;;24.90;96.30;;;;;;4175097;28;20051;-62
2023/07/14 08:40:47;;;;;;;5.18;1.90;;;24.80;97.50;;;;;;4179963;28;20073;-63
2023/07/14 08:43:09;;;;;;;3.40;1.85;;;24.80;97.20;;;;;;4169846;28;20377;-62
2023/07/14 08:45:40;;;;;;;4.68;1.98;;;24.80;96.90;;;;;;4174255;28;20040;-62
2023/07/14 08:48:05;;;;;;;3.60;1.60;;;24.70;95.80;;;;;;4174540;28;20032;-63
2023/07/14 08:50:20;;;;;;;3.70;1.75;;;24.50;96.20;;;;;;4172982;28;20541;-63
2023/07/14 08:52:28;;;;;;;3.88;1.75;;;24.60;96.80;;;;;;4176221;28;20021;-63
2023/07/14 08:54:42;;;;;;;1.88;1.42;;;24.60;96.60;;;;;;4167645;28;20037;-62
2023/07/14 08:56:44;;;;;;;2.45;1.50;;;24.60;97.60;;;;;;4164483;28;20086;-62
2023/07/14 08:58:46;;;;;;;4.25;1.83;;;24.70;97.30;;;;;;4166774;28;20464;-62
2023/07/14 09:00:59;;;;;;;3.70;1.80;;;24.70;96.70;;;;;;4172159;28;20385;-62
2023/07/14 09:03:11;;;;;;;3.22;1.70;;;24.70;96.70;;;;;;4157850;28;20105;-62
2023/07/14 09:05:23;;;;;;;3.90;1.60;;;24.70;96.30;;;;;;4176830;28;20025;-62
2023/07/14 09:07:24;;;;;;;4.97;1.85;;;24.80;97.60;;;;;;4174834;28;20063;-62
2023/07/14 09:09:31;;;;;;;2.50;1.40;;;24.80;96.00;;;;;;4178458;28;20056;-62
2023/07/14 09:11:55;;;;;;;3.03;1.65;;;24.80;95.50;;;;;;4160903;28;20041;-62
2023/07/14 09:14:08;;;;;;;4.03;1.98;;;24.90;97.10;;;;;;4174930;28;20048;-63
2023/07/14 09:16:11;;;;;;;6.88;1.48;;;24.90;97.00;;;;;;4178363;28;20036;-62
2023/07/14 09:18:33;;;;;;;2.47;1.40;;;24.90;97.30;;;;;;4175139;28;20090;-62
2023/07/14 09:20:45;;;;;;;2.72;1.48;;;24.80;96.60;;;;;;4174250;28;20086;-62
2023/07/14 09:23:13;;;;;;;2.50;1.52;;;24.80;95.90;;;;;;4176333;28;20093;-62
2023/07/14 09:25:31;;;;;;;3.22;1.95;;;24.90;96.90;;;;;;4173417;28;20024;-63
2023/07/14 09:27:32;;;;;;;3.97;1.85;;;24.80;95.80;;;;;;4179342;28;20051;-62
2023/07/14 09:29:40;;;;;;;3.05;1.55;;;24.70;94.90;;;;;;4171888;28;20040;-62
2023/07/14 09:31:55;;;;;;;1.80;1.30;;;24.70;96.00;;;;;;4160793;28;20038;-62
2023/07/14 09:34:00;;;;;;;5.65;1.40;;;24.60;96.20;;;;;;4174501;28;20412;-62
2023/07/14 09:36:00;;;;;;;2.97;1.50;;;24.70;96.30;;;;;;4174257;28;20484;-62
2023/07/14 09:38:05;;;;;;;3.20;1.35;;;24.70;95.40;;;;;;4171729;28;20033;-62
2023/07/14 09:40:18;;;;;;;2.67;1.42;;;24.70;95.50;;;;;;4153812;28;20519;-65
2023/07/14 09:42:24;;;;;;;1.90;1.42;;;24.70;96.20;;;;;;4174712;28;20091;-62
2023/07/14 09:44:25;;;;;;;2.35;1.48;;;24.70;94.50;;;;;;4174900;28;20037;-62
2023/07/14 09:46:35;;;;;;;5.47;1.77;;;24.70;95.00;;;;;;4179813;28;20322;-62
2023/07/14 09:48:44;;;;;;;3.08;1.75;;;24.70;95.30;;;;;;4177353;28;20197;-62
2023/07/14 09:50:52;;;;;;;2.13;1.40;;;24.70;95.80;;;;;;4181492;28;20045;-62
2023/07/14 09:52:56;;;;;;;3.47;1.70;;;24.80;96.00;;;;;;4183101;28;20376;-62
2023/07/14 09:54:59;;;;;;;2.75;1.58;;;24.80;95.50;;;;;;4179029;28;20447;-62
2023/07/14 09:57:02;;;;;;;3.80;1.40;;;24.80;94.80;;;;;;4174938;28;20771;-62
2023/07/14 09:59:18;;;;;;;2.70;1.50;;;24.90;95.10;;;;;;4165796;28;20491;-62
2023/07/14 10:01:18;;;;;;;2.70;1.52;;;24.80;94.00;;;;;;4165114;28;20090;-62
2023/07/14 10:03:19;;;;;;;2.65;1.50;;;24.90;94.80;;;;;;4177838;28;20541;-62
2023/07/14 10:05:31;;;;;;;2.47;1.55;;;24.90;93.90;;;;;;4164176;28;20149;-62
2023/07/14 10:07:35;;;;;;;3.17;1.65;;;25.00;94.70;;;;;;4177503;28;20561;-62
2023/07/14 10:09:54;;;;;;;2.80;1.60;;;25.00;94.50;;;;;;4176286;28;20089;-62
2023/07/14 10:12:03;;;;;;;3.22;2.00;;;25.20;95.20;;;;;;4183980;28;20033;-62
2023/07/14 10:14:19;;;;;;;2.65;1.40;;;25.20;93.50;;;;;;4177536;28;20124;-62
2023/07/14 10:16:20;;;;;;;4.45;1.90;;;25.30;93.70;;;;;;4176137;28;20554;-62
2023/07/14 10:18:22;;;;;;;2.38;1.55;;;25.40;93.10;;;;;;4178245;28;20036;-68
2023/07/14 10:20:23;;;;;;;2.47;1.45;;;25.40;94.90;;;;;;4164252;28;20090;-62
2023/07/14 10:22:31;;;;;;;2.65;1.50;;;25.60;94.00;;;;;;4174393;28;20149;-62
2023/07/14 10:24:35;;;;;;;3.33;1.88;;;25.60;94.30;;;;;;4181770;28;20038;-62
2023/07/14 10:26:40;;;;;;;3.92;1.98;;;25.60;93.50;;;;;;4179676;28;20033;-63
2023/07/14 10:28:47;;;;;;;3.55;1.90;;;25.70;93.50;;;;;;4180687;28;20512;-62
2023/07/14 10:30:52;;;;;;;3.33;1.65;;;25.60;92.20;;;;;;4172961;28;20479;-62
2023/07/14 10:32:56;;;;;;;2.85;1.90;;;25.60;94.20;;;;;;4182175;28;20036;-62
2023/07/14 10:35:17;;;;;;;2.40;1.45;;;25.70;94.90;;;;;;4182807;28;20059;-62
2023/07/14 10:37:24;;;;;;;6.15;1.83;;;25.70;94.90;;;;;;4177212;28;20037;-62
2023/07/14 10:39:48;;;;;;;4.70;1.90;;;25.60;93.10;;;;;;4173971;28;20041;-62
2023/07/14 10:41:49;;;;;;;2.10;1.52;;;25.60;92.40;;;;;;4175035;28;20071;-62
2023/07/14 10:44:02;;;;;;;2.38;1.60;;;25.60;92.70;;;;;;4159714;28;20741;-62